createdAt,value
2022-09-24T00:02:17.525Z,93.60
2022-09-24T00:04:45.558Z,93.80
2022-09-24T00:07:13.568Z,93.70
2022-09-24T00:09:42.677Z,93.60
2022-09-24T00:12:13.182Z,93.80
2022-09-24T00:14:42.826Z,93.80
2022-09-24T00:17:10.672Z,93.80
2022-09-24T00:19:38.727Z,94.20
2022-09-24T00:22:06.670Z,94.20
2022-09-24T00:24:52.559Z,94.30
2022-09-24T00:27:20.509Z,94.40
2022-09-24T00:29:49.959Z,94.20
2022-09-24T00:32:17.925Z,94.10
2022-09-24T00:34:45.832Z,94.20
2022-09-24T00:37:13.744Z,94.30
2022-09-24T00:39:41.777Z,94.40
2022-09-24T00:42:10.435Z,94.30
2022-09-24T00:44:54.823Z,94.40
2022-09-24T00:47:35.763Z,94.70
2022-09-24T00:50:19.732Z,94.50
2022-09-24T00:52:53.135Z,94.70
2022-09-24T00:55:23.571Z,94.70
2022-09-24T00:57:54.053Z,94.60
2022-09-24T01:00:23.758Z,94.90
2022-09-24T01:02:55.974Z,94.90
2022-09-24T01:05:24.257Z,95.00
2022-09-24T01:07:52.239Z,95.00
2022-09-24T01:10:41.917Z,95.00
2022-09-24T01:13:20.217Z,94.90
2022-09-24T01:15:56.338Z,95.10
2022-09-24T01:18:37.326Z,95.00
2022-09-24T01:21:18.645Z,95.20
2022-09-24T01:24:13.490Z,95.30
2022-09-24T01:26:53.385Z,95.20
2022-09-24T01:29:41.919Z,95.10
2022-09-24T01:32:17.872Z,95.10
2022-09-24T01:34:48.880Z,95.00
2022-09-24T01:37:21.214Z,95.30
2022-09-24T01:39:51.119Z,95.20
2022-09-24T01:42:20.130Z,95.10
2022-09-24T01:44:50.336Z,95.50
2022-09-24T01:47:25.599Z,95.30
2022-09-24T01:49:53.992Z,95.50
2022-09-24T01:52:26.263Z,95.50
2022-09-24T01:54:57.516Z,95.70
2022-09-24T01:57:30.042Z,95.70
2022-09-24T02:00:05.304Z,95.80
2022-09-24T02:02:45.361Z,95.90
2022-09-24T02:05:19.978Z,95.70
2022-09-24T02:07:54.090Z,95.70
2022-09-24T02:10:22.526Z,95.60
2022-09-24T02:12:55.322Z,95.60
2022-09-24T02:15:32.531Z,95.60
2022-09-24T02:18:05.751Z,95.80
2022-09-24T02:20:37.105Z,95.70
2022-09-24T02:23:07.276Z,95.60
2022-09-24T02:25:43.001Z,95.70
2022-09-24T02:28:11.185Z,95.70
2022-09-24T02:30:44.009Z,95.70
2022-09-24T02:33:39.730Z,95.80
2022-09-24T02:36:08.267Z,95.80
2022-09-24T02:38:36.188Z,95.60
2022-09-24T02:41:04.907Z,95.70
2022-09-24T02:43:35.760Z,95.60
2022-09-24T02:46:05.412Z,95.50
2022-09-24T02:48:33.324Z,95.60
2022-09-24T02:51:01.417Z,95.60
2022-09-24T02:53:29.361Z,95.90
2022-09-24T02:55:57.559Z,96.00
2022-09-24T02:58:25.660Z,96.10
2022-09-24T03:00:54.922Z,95.90
2022-09-24T03:03:24.568Z,95.80
2022-09-24T03:05:54.722Z,95.80
2022-09-24T03:08:24.266Z,95.80
2022-09-24T03:10:52.982Z,95.90
2022-09-24T03:13:20.898Z,95.90
2022-09-24T03:15:49.137Z,96.10
2022-09-24T03:18:17.187Z,96.30
2022-09-24T03:20:55.982Z,96.30
2022-09-24T03:23:24.321Z,96.30
2022-09-24T03:25:52.204Z,96.20
2022-09-24T03:28:20.254Z,96.30
2022-09-24T03:31:03.184Z,96.20
2022-09-24T03:33:33.097Z,96.30
2022-09-24T03:36:04.759Z,96.40
2022-09-24T03:38:33.857Z,96.50
2022-09-24T03:41:02.643Z,96.60
2022-09-24T03:43:31.321Z,96.90
2022-09-24T03:45:59.519Z,96.70
2022-09-24T03:48:28.159Z,96.70
2022-09-24T03:50:56.094Z,96.50
2022-09-24T03:53:25.486Z,97.00
2022-09-24T03:55:55.952Z,96.70
2022-09-24T03:58:24.364Z,96.70
2022-09-24T04:00:53.559Z,96.70
2022-09-24T04:03:22.100Z,96.70
2022-09-24T04:05:51.255Z,96.90
2022-09-24T04:08:20.007Z,96.90
2022-09-24T04:10:51.411Z,97.00
2022-09-24T04:13:20.312Z,96.90
2022-09-24T04:15:50.255Z,97.00
2022-09-24T04:18:19.525Z,97.00
2022-09-24T04:20:47.943Z,97.00
2022-09-24T04:23:16.264Z,97.10
2022-09-24T04:25:44.708Z,97.20
2022-09-24T04:28:14.106Z,97.20
2022-09-24T04:30:42.024Z,97.10
2022-09-24T04:33:12.709Z,97.40
2022-09-24T04:35:40.661Z,97.20
2022-09-24T04:38:08.682Z,97.10
2022-09-24T04:40:36.660Z,96.90
2022-09-24T04:43:06.061Z,97.00
2022-09-24T04:45:35.622Z,97.00
2022-09-24T04:48:03.700Z,97.00
2022-09-24T04:50:33.695Z,97.00
2022-09-24T04:53:03.347Z,97.20
2022-09-24T04:55:32.138Z,97.30
2022-09-24T04:58:00.411Z,97.40
2022-09-24T05:00:33.349Z,97.10
2022-09-24T05:03:04.541Z,97.10
2022-09-24T05:05:33.810Z,97.00
2022-09-24T05:08:02.593Z,96.90
2022-09-24T05:10:33.195Z,97.20
2022-09-24T05:13:02.099Z,97.00
2022-09-24T05:15:30.232Z,96.80
2022-09-24T05:17:58.371Z,96.80
2022-09-24T05:20:27.855Z,96.80
2022-09-24T05:22:56.077Z,96.90
2022-09-24T05:25:24.321Z,97.10
2022-09-24T05:27:53.013Z,97.50
2022-09-24T05:30:22.779Z,97.50
2022-09-24T05:32:52.985Z,97.50
2022-09-24T05:35:21.473Z,97.40
2022-09-24T05:37:53.211Z,97.50
2022-09-24T05:40:39.105Z,97.50
2022-09-24T05:43:07.293Z,97.40
2022-09-24T05:45:35.234Z,97.40
2022-09-24T05:48:03.431Z,97.50
2022-09-24T05:50:34.814Z,97.40
2022-09-24T05:53:04.954Z,97.30
2022-09-24T05:55:33.505Z,97.50
2022-09-24T05:58:06.657Z,97.50
2022-09-24T06:00:36.071Z,97.50
2022-09-24T06:03:07.849Z,97.40
2022-09-24T06:05:36.441Z,97.40
2022-09-24T06:08:06.582Z,97.60
2022-09-24T06:10:34.651Z,97.40
2022-09-24T06:13:03.418Z,97.40
2022-09-24T06:15:31.619Z,97.30
2022-09-24T06:17:59.522Z,97.20
2022-09-24T06:20:27.679Z,97.20
2022-09-24T06:22:57.336Z,97.20
2022-09-24T06:25:27.689Z,97.40
2022-09-24T06:28:00.577Z,97.30
2022-09-24T06:30:33.931Z,97.20
2022-09-24T06:33:06.188Z,97.10
2022-09-24T06:35:35.780Z,97.10
2022-09-24T06:38:04.053Z,97.00
2022-09-24T06:40:36.976Z,97.10
2022-09-24T06:43:06.854Z,97.10
2022-09-24T06:45:35.505Z,97.10
2022-09-24T06:48:05.942Z,97.00
2022-09-24T06:50:35.604Z,96.90
2022-09-24T06:53:06.755Z,96.90
2022-09-24T06:55:36.859Z,96.90
2022-09-24T06:58:06.640Z,96.90
2022-09-24T07:00:35.674Z,96.80
2022-09-24T07:03:04.269Z,96.70
2022-09-24T07:05:32.443Z,96.60
2022-09-24T07:08:00.634Z,96.40
2022-09-24T07:10:28.794Z,96.30
2022-09-24T07:12:58.248Z,96.20
2022-09-24T07:15:26.250Z,96.00
2022-09-24T07:17:57.213Z,96.00
2022-09-24T07:20:28.037Z,95.90
2022-09-24T07:22:56.282Z,95.80
2022-09-24T07:25:24.268Z,95.60
2022-09-24T07:27:52.285Z,95.50
2022-09-24T07:30:21.748Z,95.40
2022-09-24T07:32:56.141Z,95.20
2022-09-24T07:35:24.491Z,95.20
2022-09-24T07:37:58.703Z,94.90
2022-09-24T07:40:27.107Z,94.10
2022-09-24T07:42:55.898Z,93.40
2022-09-24T07:45:28.058Z,93.30
2022-09-24T07:48:01.059Z,93.00
2022-09-24T07:50:30.650Z,92.90
2022-09-24T07:52:58.683Z,92.80
2022-09-24T07:55:27.045Z,91.90
2022-09-24T07:57:56.723Z,91.50
2022-09-24T08:00:26.874Z,91.40
2022-09-24T08:02:56.490Z,90.80
2022-09-24T08:05:25.394Z,91.50
2022-09-24T08:07:54.086Z,91.50
2022-09-24T08:10:22.178Z,91.50
2022-09-24T08:12:50.310Z,90.90
2022-09-24T08:15:18.552Z,91.00
2022-09-24T08:17:47.856Z,90.60
2022-09-24T08:20:15.953Z,90.40
2022-09-24T08:22:43.918Z,90.30
2022-09-24T08:25:12.288Z,88.20
2022-09-24T08:27:40.271Z,88.80
2022-09-24T08:30:09.659Z,87.20
2022-09-24T08:32:37.626Z,86.30
2022-09-24T08:35:08.531Z,86.70
2022-09-24T08:37:37.457Z,86.90
2022-09-24T08:40:32.178Z,86.70
2022-09-24T08:43:07.769Z,87.60
2022-09-24T08:46:01.377Z,86.80
2022-09-24T08:48:33.935Z,86.80
2022-09-24T08:51:07.847Z,86.40
2022-09-24T08:53:46.138Z,83.90
2022-09-24T08:56:27.055Z,85.20
2022-09-24T08:58:59.582Z,83.40
2022-09-24T09:01:36.436Z,84.80
2022-09-24T09:04:14.327Z,84.10
2022-09-24T09:07:07.951Z,84.40
2022-09-24T09:09:45.475Z,84.20
2022-09-24T09:12:17.761Z,83.80
2022-09-24T09:14:51.798Z,84.90
2022-09-24T09:17:32.765Z,84.10
2022-09-24T09:20:04.450Z,83.80
2022-09-24T09:22:42.235Z,84.50
2022-09-24T09:25:20.819Z,83.40
2022-09-24T09:27:52.710Z,84.40
2022-09-24T09:30:21.943Z,83.40
2022-09-24T09:33:04.921Z,83.40
2022-09-24T09:35:39.330Z,82.70
2022-09-24T09:38:19.560Z,83.30
2022-09-24T09:40:53.849Z,83.00
2022-09-24T09:43:22.147Z,83.20
2022-09-24T09:46:02.077Z,83.10
2022-09-24T09:48:44.270Z,82.80
2022-09-24T09:51:22.275Z,82.80
2022-09-24T09:54:03.182Z,81.90
2022-09-24T09:56:34.223Z,82.20
2022-09-24T09:59:06.875Z,81.80
2022-09-24T10:01:37.323Z,82.10
2022-09-24T10:04:06.255Z,81.80
2022-09-24T10:06:35.979Z,81.70
2022-09-24T10:09:13.658Z,81.00
2022-09-24T10:11:42.141Z,81.20
2022-09-24T10:14:12.346Z,80.60
2022-09-24T10:16:43.098Z,80.60
2022-09-24T10:19:19.927Z,79.70
2022-09-24T10:21:48.124Z,78.50
2022-09-24T10:24:46.392Z,77.80
2022-09-24T10:27:19.422Z,78.40
2022-09-24T10:30:04.958Z,78.70
2022-09-24T10:32:33.057Z,78.70
2022-09-24T10:35:02.162Z,78.60
2022-09-24T10:37:30.895Z,77.60
2022-09-24T10:40:02.858Z,78.00
2022-09-24T10:42:31.975Z,78.10
2022-09-24T10:45:03.471Z,77.40
2022-09-24T10:47:41.629Z,75.80
2022-09-24T10:50:32.698Z,76.60
2022-09-24T10:53:07.785Z,73.40
2022-09-24T10:55:47.405Z,75.20
2022-09-24T10:58:29.168Z,73.70
2022-09-24T11:01:08.213Z,74.80
2022-09-24T11:03:55.793Z,74.80
2022-09-24T11:06:40.521Z,74.90
2022-09-24T11:09:16.943Z,74.20
2022-09-24T11:11:57.568Z,73.40
2022-09-24T11:14:41.316Z,73.50
2022-09-24T11:17:30.305Z,73.10
2022-09-24T11:20:25.584Z,73.50
2022-09-24T11:23:17.317Z,72.90
2022-09-24T11:25:52.292Z,72.60
2022-09-24T11:28:39.892Z,73.80
2022-09-24T11:31:18.212Z,73.80
2022-09-24T11:34:20.556Z,72.80
2022-09-24T11:37:01.488Z,72.80
2022-09-24T11:39:43.889Z,73.90
2022-09-24T11:42:22.671Z,72.60
2022-09-24T11:45:29.630Z,73.70
2022-09-24T11:48:23.249Z,74.10
2022-09-24T11:51:00.937Z,74.60
2022-09-24T11:53:40.770Z,74.90
2022-09-24T11:56:14.773Z,75.50
2022-09-24T11:58:46.986Z,76.00
2022-09-24T12:01:21.185Z,76.40
2022-09-24T12:03:57.051Z,76.60
2022-09-24T12:06:31.495Z,77.20
2022-09-24T12:09:08.460Z,76.60
2022-09-24T12:11:41.572Z,76.80
2022-09-24T12:14:15.166Z,75.20
2022-09-24T12:16:48.096Z,75.80
2022-09-24T12:19:22.023Z,76.20
2022-09-24T12:21:53.471Z,75.70
2022-09-24T12:24:28.458Z,75.60
2022-09-24T12:26:59.723Z,76.00
2022-09-24T12:29:55.786Z,76.80
2022-09-24T12:32:50.304Z,76.60
2022-09-24T12:35:27.954Z,77.00
2022-09-24T12:38:03.129Z,77.60
2022-09-24T12:40:56.559Z,77.30
2022-09-24T12:43:31.372Z,77.30
2022-09-24T12:46:02.956Z,77.60
2022-09-24T12:48:35.833Z,77.70
2022-09-24T12:51:05.993Z,78.20
2022-09-24T12:53:37.251Z,78.00
2022-09-24T12:56:07.295Z,78.30
2022-09-24T12:58:41.166Z,78.60
2022-09-24T13:01:27.133Z,79.20
2022-09-24T13:04:30.888Z,79.50
2022-09-24T13:06:58.953Z,79.90
2022-09-24T13:09:36.516Z,80.20
2022-09-24T13:12:19.326Z,80.60
2022-09-24T13:14:53.118Z,80.90
2022-09-24T13:17:22.518Z,81.30
2022-09-24T13:19:58.903Z,81.30
2022-09-24T13:22:30.077Z,81.60
2022-09-24T13:25:22.713Z,81.60
2022-09-24T13:27:59.932Z,81.90
2022-09-24T13:30:36.604Z,82.00
2022-09-24T13:33:14.464Z,82.20
2022-09-24T13:35:49.080Z,82.70
2022-09-24T13:38:22.785Z,83.20
2022-09-24T13:40:57.783Z,83.20
2022-09-24T13:43:39.321Z,83.90
2022-09-24T13:46:17.704Z,84.00
2022-09-24T13:48:51.924Z,83.70
2022-09-24T13:51:26.492Z,83.80
2022-09-24T13:53:59.865Z,84.20
2022-09-24T13:56:27.907Z,84.30
2022-09-24T13:59:06.157Z,84.30
2022-09-24T14:01:40.244Z,84.40
2022-09-24T14:04:17.388Z,84.90
2022-09-24T14:06:51.266Z,85.10
2022-09-24T14:09:28.807Z,85.20
2022-09-24T14:11:59.202Z,85.30
2022-09-24T14:14:29.322Z,85.50
2022-09-24T14:17:07.493Z,86.00
2022-09-24T14:19:36.117Z,86.40
2022-09-24T14:22:07.460Z,86.40
2022-09-24T14:24:43.237Z,86.80
2022-09-24T14:27:15.672Z,87.60
2022-09-24T14:29:49.185Z,87.70
2022-09-24T14:32:25.405Z,88.20
2022-09-24T14:34:55.611Z,88.10
2022-09-24T14:37:29.533Z,88.20
2022-09-24T14:40:04.932Z,89.50
2022-09-24T14:42:41.979Z,90.00
2022-09-24T14:45:18.196Z,90.30
2022-09-24T14:47:46.295Z,90.20
2022-09-24T14:50:29.761Z,90.50
2022-09-24T14:53:00.687Z,90.50
2022-09-24T14:55:40.752Z,90.60
2022-09-24T14:58:24.611Z,90.90
2022-09-24T15:01:16.149Z,91.00
2022-09-24T15:03:49.937Z,91.00
2022-09-24T15:06:24.118Z,91.40
2022-09-24T15:09:01.197Z,91.40
2022-09-24T15:11:31.450Z,91.60
2022-09-24T15:14:02.047Z,91.80
2022-09-24T15:16:33.875Z,91.80
2022-09-24T15:19:17.477Z,91.80
2022-09-24T15:21:46.287Z,92.00
2022-09-24T15:24:15.703Z,92.10
2022-09-24T15:26:45.576Z,92.10
2022-09-24T15:29:20.980Z,92.40
2022-09-24T15:31:49.984Z,92.40
2022-09-24T15:34:20.124Z,92.20
2022-09-24T15:36:49.421Z,92.40
2022-09-24T15:39:20.400Z,92.50
2022-09-24T15:41:48.470Z,92.60
2022-09-24T15:44:21.793Z,92.50
2022-09-24T15:46:51.488Z,92.60
2022-09-24T15:49:21.871Z,92.60
2022-09-24T15:51:51.278Z,92.60
2022-09-24T15:54:21.631Z,92.70
2022-09-24T15:56:52.322Z,93.00
2022-09-24T15:59:21.568Z,93.00
2022-09-24T16:01:52.112Z,93.00
2022-09-24T16:04:20.223Z,93.20
2022-09-24T16:06:48.149Z,93.50
2022-09-24T16:09:16.372Z,93.60
2022-09-24T16:11:46.791Z,93.50
2022-09-24T16:14:15.348Z,93.60
2022-09-24T16:16:43.495Z,93.70
2022-09-24T16:19:12.490Z,93.70
2022-09-24T16:21:40.535Z,93.50
2022-09-24T16:24:08.470Z,93.80
2022-09-24T16:26:38.002Z,93.60
2022-09-24T16:29:10.096Z,93.90
2022-09-24T16:31:38.513Z,94.00
2022-09-24T16:34:06.579Z,94.20
2022-09-24T16:36:34.498Z,94.40
2022-09-24T16:39:02.567Z,94.40
2022-09-24T16:41:34.319Z,94.50
2022-09-24T16:44:10.490Z,94.80
2022-09-24T16:46:39.734Z,95.10
2022-09-24T16:49:08.074Z,95.00
2022-09-24T16:51:36.730Z,95.30
2022-09-24T16:54:05.543Z,95.40
2022-09-24T16:56:33.638Z,95.10
2022-09-24T16:59:01.608Z,95.10
2022-09-24T17:01:29.729Z,95.10
2022-09-24T17:04:00.050Z,95.20
2022-09-24T17:06:29.949Z,95.20
2022-09-24T17:09:16.031Z,95.30
2022-09-24T17:11:46.659Z,95.30
2022-09-24T17:14:15.415Z,95.40
2022-09-24T17:16:44.277Z,95.60
2022-09-24T17:19:15.307Z,95.70
2022-09-24T17:21:45.981Z,95.70
2022-09-24T17:24:19.105Z,95.80
2022-09-24T17:26:49.442Z,96.00
2022-09-24T17:29:20.655Z,96.00
2022-09-24T17:31:50.210Z,96.00
2022-09-24T17:34:19.779Z,96.00
2022-09-24T17:36:47.743Z,96.10
2022-09-24T17:39:15.689Z,96.20
2022-09-24T17:41:43.841Z,96.20
2022-09-24T17:44:12.443Z,96.40
2022-09-24T17:46:41.164Z,96.50
2022-09-24T17:49:09.421Z,96.50
2022-09-24T17:51:39.257Z,96.50
2022-09-24T17:54:09.450Z,96.60
2022-09-24T17:56:38.799Z,96.60
2022-09-24T17:59:08.408Z,96.70
2022-09-24T18:01:38.365Z,96.70
2022-09-24T18:04:10.430Z,96.70
2022-09-24T18:06:41.502Z,97.00
2022-09-24T18:09:10.855Z,96.90
2022-09-24T18:11:41.292Z,96.90
2022-09-24T18:14:14.653Z,96.90
2022-09-24T18:16:43.063Z,96.90
2022-09-24T18:19:12.669Z,96.90
2022-09-24T18:21:42.175Z,97.00
2022-09-24T18:24:11.263Z,97.00
2022-09-24T18:26:40.667Z,97.20
2022-09-24T18:29:13.379Z,97.20
2022-09-24T18:31:42.155Z,97.20
2022-09-24T18:34:12.997Z,97.30
2022-09-24T18:36:44.133Z,97.40
2022-09-24T18:39:15.191Z,97.40
2022-09-24T18:41:44.664Z,97.50
2022-09-24T18:44:12.813Z,97.80
2022-09-24T18:46:41.245Z,97.70
2022-09-24T18:49:10.586Z,97.90
2022-09-24T18:51:39.796Z,97.90
2022-09-24T18:54:12.594Z,98.00
2022-09-24T18:56:40.824Z,97.90
2022-09-24T18:59:12.816Z,97.70
2022-09-24T19:01:42.116Z,97.80
2022-09-24T19:04:11.415Z,97.90
2022-09-24T19:06:41.222Z,98.00
2022-09-24T19:09:12.333Z,98.10
2022-09-24T19:11:41.713Z,98.00
2022-09-24T19:14:11.376Z,98.20
2022-09-24T19:16:39.809Z,98.00
2022-09-24T19:19:08.164Z,98.00
2022-09-24T19:21:36.054Z,98.10
2022-09-24T19:24:07.134Z,98.10
2022-09-24T19:26:37.521Z,98.10
2022-09-24T19:29:06.321Z,98.20
2022-09-24T19:31:36.901Z,98.30
2022-09-24T19:34:06.673Z,98.30
2022-09-24T19:36:42.959Z,98.30
2022-09-24T19:39:12.538Z,98.30
2022-09-24T19:41:42.329Z,98.20
2022-09-24T19:44:10.712Z,98.30
2022-09-24T19:46:39.453Z,98.30
2022-09-24T19:49:07.796Z,98.40
2022-09-24T19:51:36.882Z,98.50
2022-09-24T19:54:07.286Z,98.50
2022-09-24T19:56:36.183Z,98.50
2022-09-24T19:59:07.989Z,98.50
2022-09-24T20:01:36.184Z,98.50
2022-09-24T20:04:06.644Z,98.40
2022-09-24T20:06:36.165Z,98.50
2022-09-24T20:09:05.042Z,98.50
2022-09-24T20:11:33.305Z,98.50
2022-09-24T20:14:02.228Z,98.40
2022-09-24T20:16:32.862Z,98.60
2022-09-24T20:19:02.420Z,98.60
2022-09-24T20:21:34.406Z,98.50
2022-09-24T20:24:03.957Z,98.50
2022-09-24T20:26:50.098Z,98.50
2022-09-24T20:29:19.550Z,98.50
2022-09-24T20:31:52.500Z,98.60
2022-09-24T20:34:21.176Z,98.60
2022-09-24T20:36:49.453Z,98.70
2022-09-24T20:39:17.492Z,98.70
2022-09-24T20:41:45.584Z,98.70
2022-09-24T20:44:13.790Z,98.70
2022-09-24T20:46:41.841Z,98.80
2022-09-24T20:49:18.521Z,98.80
2022-09-24T20:51:46.616Z,98.80
2022-09-24T20:54:14.613Z,98.70
2022-09-24T20:56:42.964Z,98.90
2022-09-24T20:59:11.196Z,98.80
2022-09-24T21:01:41.446Z,98.90
2022-09-24T21:04:09.498Z,98.90
2022-09-24T21:06:39.022Z,98.90
2022-09-24T21:09:07.115Z,98.80
2022-09-24T21:11:34.992Z,98.80
2022-09-24T21:14:03.877Z,98.90
2022-09-24T21:16:33.482Z,98.90
2022-09-24T21:19:04.669Z,98.90
2022-09-24T21:21:34.665Z,99.00
2022-09-24T21:24:04.317Z,99.00
2022-09-24T21:26:34.070Z,99.00
2022-09-24T21:29:05.476Z,99.00
2022-09-24T21:31:34.682Z,99.00
2022-09-24T21:34:03.245Z,99.00
2022-09-24T21:36:34.191Z,99.00
2022-09-24T21:39:05.912Z,99.00
2022-09-24T21:41:36.256Z,99.10
2022-09-24T21:44:05.966Z,99.10
2022-09-24T21:46:34.862Z,99.00
2022-09-24T21:49:03.799Z,99.10
2022-09-24T21:51:31.824Z,99.10
2022-09-24T21:54:01.698Z,99.10
2022-09-24T21:56:31.678Z,99.10
2022-09-24T21:59:00.256Z,99.20
2022-09-24T22:01:31.235Z,99.20
2022-09-24T22:04:04.065Z,99.20
2022-09-24T22:06:32.835Z,99.20
2022-09-24T22:09:04.303Z,99.30
2022-09-24T22:11:34.474Z,99.30
2022-09-24T22:14:02.859Z,99.40
2022-09-24T22:16:33.077Z,99.40
2022-09-24T22:19:01.510Z,99.50
2022-09-24T22:21:29.357Z,99.40
2022-09-24T22:23:57.336Z,99.30
2022-09-24T22:26:26.234Z,99.40
2022-09-24T22:28:55.748Z,99.40
2022-09-24T22:31:23.841Z,99.40
2022-09-24T22:34:09.411Z,99.30
2022-09-24T22:36:37.342Z,99.30
2022-09-24T22:39:06.466Z,99.30
2022-09-24T22:41:37.799Z,99.30
2022-09-24T22:44:08.529Z,99.30
2022-09-24T22:46:38.179Z,99.40
2022-09-24T22:49:06.842Z,99.40
2022-09-24T22:51:39.577Z,99.40
2022-09-24T22:54:08.535Z,99.40
2022-09-24T22:56:36.742Z,99.40
2022-09-24T22:59:05.224Z,99.40
2022-09-24T23:01:35.990Z,99.40
2022-09-24T23:04:04.153Z,99.50
2022-09-24T23:06:33.855Z,99.70
2022-09-24T23:09:02.136Z,99.60
2022-09-24T23:11:32.019Z,99.50
2022-09-24T23:14:02.569Z,99.60
2022-09-24T23:16:32.642Z,99.50
2022-09-24T23:19:03.482Z,99.50
2022-09-24T23:21:32.716Z,99.60
2022-09-24T23:24:02.139Z,99.50
2022-09-24T23:26:30.474Z,99.60
2022-09-24T23:29:00.338Z,99.60
2022-09-24T23:31:31.295Z,99.60
2022-09-24T23:34:06.739Z,99.70
2022-09-24T23:36:35.520Z,99.60
2022-09-24T23:39:04.657Z,99.60
2022-09-24T23:41:32.761Z,99.60
2022-09-24T23:44:01.181Z,99.60
2022-09-24T23:46:29.302Z,99.70
2022-09-24T23:48:57.483Z,99.60
2022-09-24T23:51:27.109Z,99.70
2022-09-24T23:53:55.107Z,99.80
2022-09-24T23:56:23.342Z,99.80
2022-09-24T23:58:51.207Z,99.80
